Time;durP1;ratioP1;P1;durP2;ratioP2;P2;SDS_P1;SDS_P2;PMS_P1;PMS_P2;Temp;Humidity;BMP_temperature;BMP_pressure;BME280_temperature;BME280_humidity;BME280_pressure;Samples;Min_cycle;Max_cycle;Signal;HPM_P1;HPM_P2
2022/01/02 00:01:57;;;;;;;9.03;6.10;;;;;;;3.53;100.00;95973.22;5098775;28;20232;-58
2022/01/02 00:04:24;;;;;;;8.90;6.00;;;;;;;3.53;100.00;95978.59;5099307;28;20279;-59
2022/01/02 00:06:52;;;;;;;8.43;5.50;;;;;;;3.49;100.00;95968.50;5098813;28;20224;-59
2022/01/02 00:09:32;;;;;;;9.17;5.63;;;;;;;3.48;100.00;95969.63;5098728;28;20386;-58
2022/01/02 00:12:10;;;;;;;7.70;5.33;;;;;;;3.45;100.00;95961.41;5099133;28;20195;-58
2022/01/02 00:14:37;;;;;;;7.87;5.33;;;;;;;3.39;100.00;95960.88;5098794;28;20273;-61
2022/01/02 00:17:05;;;;;;;7.43;5.77;;;;;;;3.39;100.00;95952.78;5098476;28;20179;-61
2022/01/02 00:19:32;;;;;;;7.77;5.57;;;;;;;3.37;100.00;95949.66;5098466;28;20187;-61
2022/01/02 00:22:01;;;;;;;7.40;5.60;;;;;;;3.38;100.00;95951.22;5099062;28;20246;-61
2022/01/02 00:24:28;;;;;;;8.77;5.80;;;;;;;3.40;100.00;95948.94;5098518;28;20192;-60
2022/01/02 00:26:55;;;;;;;8.87;5.97;;;;;;;3.39;100.00;95942.00;5098517;28;20210;-61
2022/01/02 00:29:22;;;;;;;7.47;4.90;;;;;;;3.38;100.00;95945.81;5098386;28;20195;-61
2022/01/02 00:31:48;;;;;;;7.17;4.63;;;;;;;3.37;100.00;95941.56;5099104;28;20184;-61
2022/01/02 00:34:14;;;;;;;8.97;5.43;;;;;;;3.37;100.00;95938.88;5098622;28;20226;-61
2022/01/02 00:36:40;;;;;;;6.40;4.90;;;;;;;3.34;100.00;95928.75;5098415;28;20183;-59
2022/01/02 00:39:06;;;;;;;7.60;4.87;;;;;;;3.32;100.00;95936.38;5098538;28;20190;-59
2022/01/02 00:41:42;;;;;;;7.53;4.97;;;;;;;3.30;100.00;95935.97;5098419;28;20252;-59
2022/01/02 00:44:24;;;;;;;9.13;5.60;;;;;;;3.25;100.00;95930.78;5098854;28;20228;-59
2022/01/02 00:47:12;;;;;;;8.57;5.67;;;;;;;3.20;100.00;95928.34;5097438;28;20188;-59
2022/01/02 00:49:40;;;;;;;9.33;5.20;;;;;;;3.15;100.00;95920.50;5098957;28;20187;-67
2022/01/02 00:52:12;;;;;;;7.80;5.37;;;;;;;3.10;100.00;95917.28;5098636;28;20211;-65
2022/01/02 00:54:42;;;;;;;7.27;5.10;;;;;;;3.04;100.00;95919.41;5098652;28;20203;-65
2022/01/02 00:57:13;;;;;;;7.93;5.43;;;;;;;3.03;100.00;95922.47;5098145;28;20270;-65
2022/01/02 00:59:48;;;;;;;8.60;5.40;;;;;;;3.00;100.00;95921.22;5098015;28;20240;-64
2022/01/02 01:02:17;;;;;;;7.63;5.53;;;;;;;2.98;100.00;95926.16;5098618;28;20217;-65
2022/01/02 01:04:43;;;;;;;8.13;5.40;;;;;;;2.96;100.00;95925.72;5097967;28;20180;-64
2022/01/02 01:07:09;;;;;;;7.60;5.13;;;;;;;2.93;100.00;95926.41;5097879;28;20179;-64
2022/01/02 01:09:34;;;;;;;8.87;5.33;;;;;;;2.93;100.00;95934.50;5097988;28;20183;-66
2022/01/02 01:12:02;;;;;;;7.50;4.90;;;;;;;2.86;100.00;95928.91;5097897;28;20211;-68
2022/01/02 01:14:29;;;;;;;6.93;4.73;;;;;;;2.83;100.00;95934.97;5097727;28;20188;-68
2022/01/02 01:16:55;;;;;;;6.10;4.57;;;;;;;2.81;100.00;95926.44;5098277;28;20184;-68
2022/01/02 01:19:22;;;;;;;8.03;5.10;;;;;;;2.79;100.00;95923.31;5097839;28;20219;-68
2022/01/02 01:21:48;;;;;;;6.77;5.00;;;;;;;2.78;100.00;95926.34;5097882;28;20211;-68
2022/01/02 01:24:13;;;;;;;5.80;4.60;;;;;;;2.76;100.00;95929.38;5097682;28;20214;-68
2022/01/02 01:26:40;;;;;;;8.63;4.40;;;;;;;2.76;100.00;95929.38;5097639;28;20191;-61
2022/01/02 01:29:06;;;;;;;5.60;4.40;;;;;;;2.76;100.00;95926.66;5097624;28;20179;-67
2022/01/02 01:31:31;;;;;;;5.33;4.00;;;;;;;2.77;100.00;95938.25;5097992;28;20180;-60
2022/01/02 01:33:56;;;;;;;5.87;4.27;;;;;;;2.76;100.00;95934.75;5097068;28;20259;-61
2022/01/02 01:36:22;;;;;;;8.20;4.37;;;;;;;2.75;100.00;95938.59;5097488;28;20183;-61
2022/01/02 01:38:47;;;;;;;6.00;4.00;;;;;;;2.74;100.00;95945.09;5097446;28;20275;-61
2022/01/02 01:41:36;;;;;;;6.70;4.50;;;;;;;2.73;100.00;95940.81;5097800;28;20199;-61
2022/01/02 01:46:35;;;;;;;4.80;3.50;;;;;;;2.71;100.00;95931.50;5115402;28;20354;-65
2022/01/02 01:49:00;;;;;;;5.13;3.50;;;;;;;2.70;100.00;95924.56;5097206;28;20233;-58
2022/01/02 01:51:26;;;;;;;4.53;3.50;;;;;;;2.66;100.00;95923.66;5097572;28;20225;-58
2022/01/02 01:53:51;;;;;;;4.87;3.60;;;;;;;2.65;100.00;95922.88;5097232;28;20191;-60
2022/01/02 01:56:17;;;;;;;5.00;3.90;;;;;;;2.67;100.00;95926.03;5097168;28;20192;-58
2022/01/02 01:58:42;;;;;;;4.97;3.83;;;;;;;2.67;100.00;95915.25;5095722;28;20188;-58
2022/01/02 02:01:08;;;;;;;4.87;3.60;;;;;;;2.63;100.00;95914.31;5097044;28;20187;-58
2022/01/02 02:03:33;;;;;;;5.60;3.40;;;;;;;2.63;100.00;95908.94;5097078;28;20190;-59
2022/01/02 02:05:59;;;;;;;5.23;3.30;;;;;;;2.65;100.00;95905.91;5097130;28;20198;-59
2022/01/02 02:08:26;;;;;;;4.27;3.30;;;;;;;2.67;100.00;95904.47;5097005;28;20179;-60
2022/01/02 02:10:56;;;;;;;4.53;3.70;;;;;;;2.66;100.00;95892.09;5114474;28;20237;-60
2022/01/02 02:13:22;;;;;;;4.33;3.63;;;;;;;2.62;100.00;95885.81;5096908;28;20172;-60
2022/01/02 02:15:49;;;;;;;7.77;3.83;;;;;;;2.61;100.00;95891.53;5097128;28;20205;-60
2022/01/02 02:18:15;;;;;;;6.37;3.97;;;;;;;2.59;100.00;95880.34;5097037;28;20176;-60
2022/01/02 02:20:40;;;;;;;5.70;3.90;;;;;;;2.56;100.00;95881.78;5096839;28;20286;-60
2022/01/02 02:23:06;;;;;;;5.97;3.80;;;;;;;2.59;100.00;95886.47;5097212;28;20192;-59
2022/01/02 02:25:42;;;;;;;5.77;4.03;;;;;;;2.62;100.00;95877.72;5096756;28;20199;-60
2022/01/02 02:28:16;;;;;;;4.70;3.57;;;;;;;2.62;100.00;95880.41;5097125;28;20187;-60
2022/01/02 02:30:45;;;;;;;5.10;3.67;;;;;;;2.66;100.00;95880.53;5097092;28;20194;-60
2022/01/02 02:33:11;;;;;;;4.90;3.43;;;;;;;2.67;100.00;95871.31;5096234;28;20311;-60
2022/01/02 02:35:38;;;;;;;5.43;3.80;;;;;;;2.69;100.00;95872.53;5096751;28;20192;-60
2022/01/02 02:38:06;;;;;;;8.23;3.77;;;;;;;2.70;100.00;95863.31;5096301;28;20191;-60
2022/01/02 02:40:31;;;;;;;5.17;3.40;;;;;;;2.71;100.00;95873.00;5096619;28;20187;-61
2022/01/02 02:43:03;;;;;;;5.40;3.50;;;;;;;2.74;100.00;95855.34;5096392;28;20294;-69
2022/01/02 02:51:11;;;;;;;5.00;3.00;;;;;;;2.72;100.00;95855.69;5114618;28;20191;-59
2022/01/02 02:53:41;;;;;;;4.90;3.23;;;;;;;2.74;100.00;95856.13;5096307;28;20190;-59
2022/01/02 02:56:29;;;;;;;4.83;3.07;;;;;;;2.72;100.00;95853.00;5096136;28;20179;-59
2022/01/02 02:58:56;;;;;;;4.37;3.50;;;;;;;2.68;100.00;95846.72;5096552;28;20179;-60
2022/01/02 03:01:28;;;;;;;5.33;3.33;;;;;;;2.66;100.00;95837.41;5113982;28;20200;-67
2022/01/02 03:03:54;;;;;;;4.87;3.43;;;;;;;2.63;100.00;95828.06;5096354;28;20275;-66
2022/01/02 03:06:20;;;;;;;4.60;3.40;;;;;;;2.59;100.00;95826.41;5096142;28;20329;-64
2022/01/02 03:08:46;;;;;;;5.60;3.07;;;;;;;2.54;100.00;95824.75;5095743;28;20197;-64
2022/01/02 03:11:15;;;;;;;4.93;3.40;;;;;;;2.54;100.00;95830.13;5099474;28;20179;-64
2022/01/02 03:13:41;;;;;;;6.10;3.30;;;;;;;2.54;100.00;95824.75;5099688;28;20179;-64
2022/01/02 03:16:07;;;;;;;4.40;3.17;;;;;;;2.54;100.00;95822.03;5099843;28;20203;-63
2022/01/02 03:18:32;;;;;;;4.20;3.20;;;;;;;2.53;100.00;95827.78;5099705;28;20195;-63
2022/01/02 03:20:58;;;;;;;5.23;3.40;;;;;;;2.52;100.00;95835.06;5099470;28;20186;-65
2022/01/02 03:23:23;;;;;;;4.40;3.10;;;;;;;2.50;100.00;95834.63;5099723;28;20222;-66
2022/01/02 03:25:49;;;;;;;3.57;2.70;;;;;;;2.47;100.00;95824.53;5099761;28;20182;-67
2022/01/02 03:28:15;;;;;;;4.43;2.80;;;;;;;2.45;100.00;95810.59;5099598;28;20212;-64
2022/01/02 03:30:41;;;;;;;4.43;2.90;;;;;;;2.45;100.00;95810.59;5099451;28;20184;-66
2022/01/02 03:33:06;;;;;;;3.63;2.60;;;;;;;2.46;100.00;95809.50;5099474;28;20214;-65
2022/01/02 03:35:32;;;;;;;3.20;2.50;;;;;;;2.48;100.00;95807.22;5099937;28;20187;-60
2022/01/02 03:37:57;;;;;;;3.80;2.47;;;;;;;2.49;100.00;95800.75;5099255;28;20176;-64
2022/01/02 03:40:22;;;;;;;4.70;2.60;;;;;;;2.51;100.00;95806.56;5099793;28;20176;-69
2022/01/02 03:42:48;;;;;;;3.47;2.77;;;;;;;2.53;100.00;95806.22;5099541;28;20219;-68
2022/01/02 03:45:13;;;;;;;3.33;2.50;;;;;;;2.54;100.00;95807.78;5099268;28;20186;-69
2022/01/02 03:47:39;;;;;;;2.97;2.20;;;;;;;2.55;100.00;95804.75;5099397;28;20198;-68
2022/01/02 03:50:05;;;;;;;3.43;2.60;;;;;;;2.55;100.00;95804.75;5099007;28;20180;-68
2022/01/02 03:52:31;;;;;;;4.23;2.63;;;;;;;2.55;100.00;95810.13;5099449;28;20228;-68
2022/01/02 03:54:57;;;;;;;3.87;2.60;;;;;;;2.55;100.00;95801.28;5098984;28;20180;-59
2022/01/02 03:57:23;;;;;;;3.37;2.73;;;;;;;2.56;100.00;95790.16;5099124;28;20198;-59
2022/01/02 03:59:48;;;;;;;3.50;2.33;;;;;;;2.65;100.00;95792.69;5098944;28;20187;-59
2022/01/02 04:02:14;;;;;;;4.10;2.80;;;;;;;2.63;100.00;95790.34;5099422;28;20204;-60
2022/01/02 04:04:39;;;;;;;3.07;2.30;;;;;;;2.67;100.00;95785.84;5099373;28;20194;-59
2022/01/02 04:07:05;;;;;;;4.37;2.57;;;;;;;2.69;100.00;95772.81;5099389;28;20188;-59
2022/01/02 04:09:30;;;;;;;3.30;2.23;;;;;;;2.73;100.00;95768.28;5098907;28;20195;-59
2022/01/02 04:11:56;;;;;;;3.67;2.47;;;;;;;2.75;100.00;95776.84;5099272;28;20180;-59
2022/01/02 04:14:21;;;;;;;2.77;2.20;;;;;;;2.76;100.00;95778.41;5099082;28;20183;-59
2022/01/02 04:16:46;;;;;;;2.53;2.30;;;;;;;2.76;100.00;95775.69;5099235;28;20214;-59
2022/01/02 04:19:12;;;;;;;4.57;2.40;;;;;;;2.75;100.00;95786.81;5099090;28;20196;-59
2022/01/02 04:21:37;;;;;;;3.13;2.33;;;;;;;2.71;100.00;95786.75;5097906;28;20276;-59
2022/01/02 04:24:03;;;;;;;3.17;2.40;;;;;;;2.64;100.00;95781.16;5099018;28;20187;-59
2022/01/02 04:26:28;;;;;;;5.87;3.47;;;;;;;2.58;100.00;95771.72;5098510;28;20244;-59
2022/01/02 04:28:54;;;;;;;4.13;3.10;;;;;;;2.55;100.00;95767.00;5098514;28;20625;-59
2022/01/02 04:31:19;;;;;;;5.73;3.00;;;;;;;2.50;100.00;95764.56;5098160;28;20313;-63
2022/01/02 04:33:44;;;;;;;4.53;2.93;;;;;;;2.50;100.00;95753.00;5098400;28;20210;-66
2022/01/02 04:36:10;;;;;;;3.83;2.70;;;;;;;2.46;100.00;95758.31;5098432;28;20198;-66
2022/01/02 04:38:37;;;;;;;3.67;2.60;;;;;;;2.45;100.00;95766.72;5098157;28;20188;-66
2022/01/02 04:41:02;;;;;;;4.00;2.67;;;;;;;2.43;100.00;95769.75;5116407;28;20187;-65
2022/01/02 04:43:28;;;;;;;4.97;3.07;;;;;;;2.42;100.00;95762.81;5098287;28;20179;-65
2022/01/02 04:45:53;;;;;;;4.87;2.70;;;;;;;2.43;100.00;95758.19;5098359;28;20184;-65
2022/01/02 04:48:18;;;;;;;4.90;2.60;;;;;;;2.44;100.00;95760.53;5098219;28;20195;-66
2022/01/02 04:50:44;;;;;;;3.67;2.50;;;;;;;2.41;100.00;95769.31;5098321;28;20192;-64
2022/01/02 04:53:09;;;;;;;4.87;3.00;;;;;;;2.38;100.00;95764.63;5098435;28;20183;-59
2022/01/02 04:55:34;;;;;;;4.03;2.87;;;;;;;2.36;100.00;95763.38;5098022;28;20227;-60
2022/01/02 04:58:00;;;;;;;3.27;2.73;;;;;;;2.29;100.00;95763.97;5098379;28;20254;-59
2022/01/02 05:00:25;;;;;;;3.63;3.10;;;;;;;2.29;100.00;95758.56;5098219;28;20184;-59
2022/01/02 05:02:52;;;;;;;2.97;2.63;;;;;;;2.33;100.00;95758.69;5097575;28;20203;-59
2022/01/02 05:05:17;;;;;;;3.73;2.60;;;;;;;2.33;100.00;95758.69;5097994;28;20224;-59
2022/01/02 05:07:42;;;;;;;5.10;3.17;;;;;;;2.33;100.00;95756.00;5097934;28;20188;-59
2022/01/02 05:10:08;;;;;;;4.67;3.07;;;;;;;2.29;100.00;95755.88;5098040;28;20296;-68
2022/01/02 05:12:34;;;;;;;3.93;2.90;;;;;;;2.28;100.00;95746.22;5097827;28;20281;-59
2022/01/02 05:15:00;;;;;;;4.13;3.00;;;;;;;2.28;100.00;95751.63;5098267;28;20252;-59
2022/01/02 05:17:25;;;;;;;5.50;3.30;;;;;;;2.28;100.00;95740.84;5098224;28;20183;-59
2022/01/02 05:19:51;;;;;;;5.67;2.93;;;;;;;2.25;100.00;95741.53;5097808;28;20240;-59
2022/01/02 05:22:16;;;;;;;3.53;2.77;;;;;;;2.25;100.00;95735.34;5097526;28;20257;-60
2022/01/02 05:24:41;;;;;;;3.77;2.80;;;;;;;2.23;100.00;95748.38;5097418;28;20211;-59
2022/01/02 05:27:07;;;;;;;3.63;2.60;;;;;;;2.20;100.00;95733.69;5097900;28;20210;-59
2022/01/02 05:29:32;;;;;;;4.30;2.97;;;;;;;2.19;100.00;95729.41;5097619;28;20215;-65
2022/01/02 05:31:57;;;;;;;4.53;2.70;;;;;;;2.17;100.00;95729.00;5097377;28;20180;-65
2022/01/02 05:34:22;;;;;;;4.10;3.10;;;;;;;2.13;100.00;95721.91;5115403;28;20262;-65
2022/01/02 05:36:51;;;;;;;4.27;3.10;;;;;;;2.08;100.00;95719.47;5097627;28;20207;-69
2022/01/02 05:39:18;;;;;;;4.40;3.03;;;;;;;2.04;100.00;95719.34;5097515;28;20206;-65
2022/01/02 05:41:48;;;;;;;4.00;2.87;;;;;;;1.99;100.00;95727.69;5097502;28;20271;-65
2022/01/02 05:44:13;;;;;;;3.87;2.90;;;;;;;1.96;100.00;95722.97;5097234;28;20180;-59
2022/01/02 05:46:39;;;;;;;3.03;2.70;;;;;;;1.90;100.00;95712.78;5097863;28;20193;-69
2022/01/02 05:49:05;;;;;;;4.07;3.00;;;;;;;1.86;100.00;95720.75;5097245;28;20209;-69
2022/01/02 05:51:30;;;;;;;3.57;2.67;;;;;;;1.83;100.00;95713.38;5097264;28;20203;-69
2022/01/02 05:53:55;;;;;;;5.17;2.87;;;;;;;1.79;100.00;95711.69;5097233;28;20214;-71
2022/01/02 05:56:21;;;;;;;3.93;2.50;;;;;;;1.77;100.00;95703.94;5097221;28;20191;-69
2022/01/02 05:58:46;;;;;;;3.73;2.30;;;;;;;1.76;100.00;95704.28;5097169;28;20190;-69
2022/01/02 06:01:11;;;;;;;3.33;2.60;;;;;;;1.78;100.00;95708.22;5097165;28;20218;-69
2022/01/02 06:03:37;;;;;;;4.07;2.80;;;;;;;1.82;100.00;95705.63;5097672;28;20225;-63
2022/01/02 06:06:02;;;;;;;2.57;2.00;;;;;;;1.81;100.00;95704.84;5097084;28;20311;-59
2022/01/02 06:08:28;;;;;;;2.83;2.30;;;;;;;1.79;100.00;95704.38;5097050;28;20523;-59
2022/01/02 06:10:53;;;;;;;2.63;2.33;;;;;;;1.80;100.00;95705.97;5096964;28;20179;-60
2022/01/02 06:13:18;;;;;;;3.43;2.70;;;;;;;1.79;100.00;95701.69;5097475;28;20251;-59
2022/01/02 06:15:44;;;;;;;3.97;2.57;;;;;;;1.78;100.00;95700.13;5096961;28;20182;-59
2022/01/02 06:18:09;;;;;;;2.50;2.30;;;;;;;1.81;100.00;95699.47;5096971;28;20173;-59
2022/01/02 06:20:35;;;;;;;4.00;2.23;;;;;;;1.80;100.00;95695.22;5113736;28;20183;-59
2022/01/02 06:23:00;;;;;;;2.97;2.57;;;;;;;1.79;100.00;95690.91;5096653;28;20364;-59
2022/01/02 06:25:26;;;;;;;3.30;3.00;;;;;;;1.79;100.00;95690.91;5096867;28;20259;-66
2022/01/02 06:27:51;;;;;;;4.63;3.67;;;;;;;1.81;100.00;95694.06;5096613;28;20190;-67
2022/01/02 06:30:17;;;;;;;7.50;5.00;;;;;;;1.82;100.00;95698.31;5096993;28;20213;-69
2022/01/02 06:32:42;;;;;;;4.20;2.90;;;;;;;1.84;100.00;95693.41;5096808;28;20297;-68
2022/01/02 06:35:08;;;;;;;4.93;2.47;;;;;;;1.85;100.00;95692.28;5096788;28;20178;-67
2022/01/02 06:37:33;;;;;;;5.47;3.53;;;;;;;1.82;100.00;95690.25;5096569;28;20184;-65
2022/01/02 06:39:59;;;;;;;27.53;18.13;;;;;;;1.83;100.00;95682.97;5114028;28;20183;-63
2022/01/02 06:42:24;;;;;;;5.73;3.53;;;;;;;1.81;100.00;95688.69;5113387;28;20200;-64
2022/01/02 06:44:49;;;;;;;4.17;3.30;;;;;;;1.80;100.00;95695.22;5095845;28;20348;-70
2022/01/02 06:47:15;;;;;;;4.07;2.70;;;;;;;1.80;100.00;95692.50;5096313;28;20213;-67
2022/01/02 06:49:41;;;;;;;3.37;2.10;;;;;;;1.81;100.00;95694.06;5096269;28;20185;-66
2022/01/02 06:52:07;;;;;;;2.57;1.80;;;;;;;1.83;100.00;95691.03;5096541;28;20182;-70
2022/01/02 06:54:32;;;;;;;2.73;2.10;;;;;;;1.84;100.00;95688.00;5096242;28;20208;-69
2022/01/02 06:56:58;;;;;;;3.57;2.30;;;;;;;1.87;100.00;95694.63;5096142;28;20179;-70
2022/01/02 06:59:23;;;;;;;2.93;1.90;;;;;;;1.91;100.00;95688.22;5096348;28;20182;-61
2022/01/02 07:01:49;;;;;;;3.97;2.30;;;;;;;1.97;100.00;95692.22;5096402;28;20256;-66
2022/01/02 07:04:14;;;;;;;3.33;2.30;;;;;;;2.04;100.00;95692.44;5095988;28;20194;-66
2022/01/02 07:06:39;;;;;;;2.67;1.80;;;;;;;2.12;100.00;95694.19;5095926;28;20185;-67
2022/01/02 07:09:05;;;;;;;9.47;6.60;;;;;;;2.18;100.00;95692.84;5096039;28;20207;-66
2022/01/02 07:11:31;;;;;;;3.17;2.50;;;;;;;2.35;100.00;95697.16;5096068;28;20210;-66
2022/01/02 07:13:56;;;;;;;4.30;3.17;;;;;;;2.92;100.00;95697.53;5112784;28;20240;-67
2022/01/02 07:16:21;;;;;;;6.93;4.50;;;;;;;3.54;100.00;95692.91;5095861;28;20183;-62
2022/01/02 07:18:47;;;;;;;8.70;4.93;;;;;;;4.02;100.00;95694.34;5096100;28;20184;-62
2022/01/02 07:21:13;;;;;;;3.07;2.20;;;;;;;4.43;100.00;95687.47;5095761;28;20183;-58
2022/01/02 07:23:38;;;;;;;2.37;1.70;;;;;;;4.84;100.00;95692.13;5095864;28;20183;-58
2022/01/02 07:26:04;;;;;;;3.00;2.33;;;;;;;5.31;100.00;95697.97;5095694;28;20197;-58
2022/01/02 07:28:33;;;;;;;2.77;2.47;;;;;;;5.71;100.00;95698.22;5095947;28;20229;-58
2022/01/02 07:30:59;;;;;;;3.20;2.30;;;;;;;6.30;100.00;95699.09;5095733;28;20173;-58
2022/01/02 07:33:24;;;;;;;3.13;2.00;;;;;;;6.74;100.00;95691.88;5095716;28;20206;-58
2022/01/02 07:35:49;;;;;;;3.27;2.20;;;;;;;7.18;100.00;95699.31;5095861;28;20181;-65
2022/01/02 07:38:14;;;;;;;2.93;2.00;;;;;;;7.51;100.00;95702.72;5095875;28;20182;-65
2022/01/02 07:40:40;;;;;;;2.63;2.10;;;;;;;7.72;100.00;95702.88;5095546;28;20217;-66
2022/01/02 07:43:05;;;;;;;3.13;2.20;;;;;;;7.46;100.00;95700.34;5095683;28;20199;-66
2022/01/02 07:45:30;;;;;;;2.93;2.07;;;;;;;7.76;100.00;95703.69;5096151;28;20183;-65
2022/01/02 07:47:56;;;;;;;2.70;1.80;;;;;;;8.27;100.00;95696.28;5095752;28;20179;-66
2022/01/02 07:50:22;;;;;;;2.87;2.10;;;;;;;8.63;100.00;95698.00;5095514;28;20183;-66
2022/01/02 07:52:48;;;;;;;2.93;2.10;;;;;;;8.96;100.00;95689.56;5095602;28;20184;-66
2022/01/02 07:55:13;;;;;;;2.30;2.00;;;;;;;9.40;100.00;95687.31;5114052;28;20183;-58
2022/01/02 07:57:39;;;;;;;3.53;2.30;;;;;;;9.77;100.00;95679.53;5099197;28;20190;-62
2022/01/02 08:00:05;;;;;;;3.43;2.60;;;;;;;10.06;100.00;95678.34;5098589;28;20267;-62
2022/01/02 08:02:30;;;;;;;4.47;2.20;;;;;;;9.85;100.00;95680.31;5098771;28;20275;-61
2022/01/02 08:04:55;;;;;;;2.27;2.07;;;;;;;9.79;100.00;95677.19;5099170;28;20590;-61
2022/01/02 08:07:21;;;;;;;2.10;1.90;;;;;;;9.78;100.00;95680.31;5099147;28;20273;-60
2022/01/02 08:09:46;;;;;;;2.03;1.83;;;;;;;10.01;100.00;95672.50;5098930;28;20183;-60
2022/01/02 08:12:11;;;;;;;2.23;1.93;;;;;;;9.76;100.00;95672.53;5099022;28;20231;-65
2022/01/02 08:14:37;;;;;;;3.20;1.80;;;;;;;9.32;100.00;95674.06;5115709;28;20273;-58
2022/01/02 08:17:02;;;;;;;2.10;1.67;;;;;;;9.13;100.00;95675.22;5098751;28;20191;-58
2022/01/02 08:19:28;;;;;;;2.43;1.60;;;;;;;8.89;100.00;95673.22;5099108;28;20205;-58
2022/01/02 08:21:53;;;;;;;2.20;1.70;;;;;;;8.52;100.00;95675.41;5098436;28;20234;-59
2022/01/02 08:24:18;;;;;;;2.77;2.17;;;;;;;8.43;100.00;95675.00;5115504;28;20189;-58
2022/01/02 08:26:45;;;;;;;2.97;1.80;;;;;;;8.30;100.00;95679.19;5099393;28;20212;-58
2022/01/02 08:29:10;;;;;;;2.10;1.90;;;;;;;8.02;100.00;95676.31;5098404;28;20178;-58
2022/01/02 08:31:36;;;;;;;2.60;1.87;;;;;;;8.04;100.00;95671.25;5098595;28;20192;-58
2022/01/02 08:34:01;;;;;;;2.87;2.00;;;;;;;8.17;100.00;95663.56;5098365;28;20200;-58
2022/01/02 08:36:27;;;;;;;3.13;2.27;;;;;;;7.99;100.00;95663.47;5098601;28;20184;-59
2022/01/02 08:38:52;;;;;;;3.40;2.50;;;;;;;7.90;100.00;95665.72;5098171;28;20188;-59
2022/01/02 08:41:18;;;;;;;3.73;2.30;;;;;;;7.83;100.00;95668.41;5115188;28;20181;-58
2022/01/02 08:43:43;;;;;;;2.97;2.03;;;;;;;8.14;100.00;95658.88;5116383;28;20178;-59
2022/01/02 08:46:10;;;;;;;7.10;4.73;;;;;;;8.72;100.00;95646.72;5098290;28;20192;-58
2022/01/02 08:48:35;;;;;;;4.40;3.10;;;;;;;8.96;100.00;95646.00;5098296;28;20179;-60
2022/01/02 08:51:00;;;;;;;5.30;3.50;;;;;;;9.04;100.00;95652.25;5098368;28;20270;-65
2022/01/02 08:53:27;;;;;;;2.50;2.17;;;;;;;9.13;100.00;95650.69;5098052;28;20256;-67
2022/01/02 08:55:53;;;;;;;3.57;2.10;;;;;;;9.18;100.00;95644.84;5098161;28;20172;-69
2022/01/02 08:58:19;;;;;;;2.60;2.00;;;;;;;9.29;100.00;95653.06;5098393;28;20180;-68
2022/01/02 09:00:45;;;;;;;3.33;2.50;;;;;;;9.39;100.00;95655.78;5098441;28;20176;-67
2022/01/02 09:03:10;;;;;;;3.73;2.30;;;;;;;9.68;100.00;95654.63;5098011;28;20264;-71
2022/01/02 09:05:35;;;;;;;3.83;2.27;;;;;;;10.28;100.00;95648.28;5097934;28;20214;-69
2022/01/02 09:08:01;;;;;;;5.97;2.67;;;;;;;10.39;100.00;95643.56;5097340;28;20215;-64
2022/01/02 09:10:26;;;;;;;3.90;2.70;;;;;;;10.69;100.00;95641.09;5097661;28;20210;-65
2022/01/02 09:12:51;;;;;;;3.87;2.23;;;;;;;10.98;100.00;95643.31;5097841;28;20197;-66
2022/01/02 09:15:17;;;;;;;4.07;2.40;;;;;;;10.81;100.00;95644.16;5098083;28;20234;-65
2022/01/02 09:17:42;;;;;;;3.83;2.83;;;;;;;10.87;100.00;95648.06;5097835;28;20195;-65
2022/01/02 09:20:09;;;;;;;7.23;3.07;;;;;;;10.97;100.00;95646.44;5097650;28;20287;-65
2022/01/02 09:22:37;;;;;;;4.73;2.73;;;;;;;10.72;100.00;95640.31;5097335;28;20202;-66
2022/01/02 09:25:03;;;;;;;4.87;2.83;;;;;;;10.58;100.00;95640.38;5097460;28;20183;-66
2022/01/02 09:30:31;;;;;;;3.17;2.47;;;;;;;10.53;100.00;95638.06;5162732;22;20292;-58
2022/01/02 09:32:57;;;;;;;3.43;2.73;;;;;;;10.77;100.00;95620.78;5057972;28;20298;-58
2022/01/02 09:35:22;;;;;;;4.23;2.90;;;;;;;11.35;100.00;95629.00;5057756;28;20203;-60
2022/01/02 09:37:47;;;;;;;5.90;2.87;;;;;;;12.03;100.00;95634.31;5057636;28;20287;-60
2022/01/02 09:40:13;;;;;;;4.97;2.73;;;;;;;12.69;100.00;95640.22;5057140;28;20263;-59
2022/01/02 09:42:39;;;;;;;5.37;2.90;;;;;;;13.35;97.50;95630.31;5057451;28;20216;-67
2022/01/02 09:45:05;;;;;;;4.70;3.00;;;;;;;13.88;91.66;95632.97;5057610;28;20212;-71
2022/01/02 09:47:32;;;;;;;4.03;3.00;;;;;;;14.27;85.66;95627.59;5057770;28;20197;-66
2022/01/02 09:49:59;;;;;;;3.83;2.50;;;;;;;14.54;84.83;95627.50;5074032;28;20204;-66
2022/01/02 09:52:24;;;;;;;3.87;2.93;;;;;;;15.11;81.64;95636.88;5057083;28;20204;-67
2022/01/02 09:54:50;;;;;;;7.57;3.97;;;;;;;15.56;77.80;95639.84;5056666;28;20197;-66
2022/01/02 09:57:16;;;;;;;3.93;2.63;;;;;;;15.84;76.03;95630.88;5056910;28;20208;-65
2022/01/02 09:59:42;;;;;;;4.90;2.93;;;;;;;15.96;73.75;95630.97;5056746;28;20357;-68
2022/01/02 10:02:07;;;;;;;4.13;2.70;;;;;;;15.82;72.74;95625.81;5056821;28;20216;-64
2022/01/02 10:04:41;;;;;;;3.67;2.67;;;;;;;16.20;69.08;95628.78;5057002;28;20228;-60
2022/01/02 10:07:31;;;;;;;3.37;1.93;;;;;;;16.63;65.30;95623.69;5056787;28;20201;-63
2022/01/02 10:09:58;;;;;;;4.23;2.10;;;;;;;17.07;59.86;95620.06;5041639;28;20216;-63
2022/01/02 10:12:29;;;;;;;2.00;1.80;;;;;;;17.37;58.16;95622.28;5073824;28;20203;-65
2022/01/02 10:15:06;;;;;;;1.97;1.50;;;;;;;17.11;56.96;95617.97;5057117;28;20243;-64
2022/01/02 10:18:04;;;;;;;2.17;1.97;;;;;;;16.79;57.44;95617.34;5056599;28;20200;-64
2022/01/02 10:20:31;;;;;;;2.13;1.70;;;;;;;17.09;56.35;95605.81;5056106;28;20205;-64
2022/01/02 10:23:00;;;;;;;2.80;1.60;;;;;;;17.28;55.14;95602.06;5056564;28;20213;-64
2022/01/02 10:25:46;;;;;;;2.67;1.63;;;;;;;17.19;53.84;95604.75;5052111;28;20222;-60
2022/01/02 10:28:27;;;;;;;3.73;1.63;;;;;;;16.63;57.29;95592.59;5052612;28;20213;-59
2022/01/02 10:31:08;;;;;;;1.63;1.50;;;;;;;16.64;59.58;95592.16;5051898;28;20217;-59
2022/01/02 10:33:56;;;;;;;3.57;1.90;;;;;;;16.95;59.60;95589.69;5052734;28;20205;-58
2022/01/02 10:36:37;;;;;;;2.00;1.80;;;;;;;17.31;58.36;95592.91;5052143;28;20229;-58
2022/01/02 10:39:15;;;;;;;3.53;2.83;;;;;;;17.61;56.14;95592.38;5052294;28;20205;-59
2022/01/02 10:41:46;;;;;;;3.23;2.70;;;;;;;17.36;58.98;95589.59;5052306;28;20221;-64
2022/01/02 10:44:25;;;;;;;2.40;2.00;;;;;;;16.76;60.44;95576.84;5052196;28;20204;-69
2022/01/02 10:47:18;;;;;;;2.57;1.53;;;;;;;16.21;59.31;95587.00;5035149;28;20220;-69
2022/01/02 10:50:05;;;;;;;2.73;1.60;;;;;;;15.75;59.51;95581.94;5035363;28;20198;-71
2022/01/02 10:52:39;;;;;;;2.73;1.60;;;;;;;15.20;63.16;95587.56;5051813;28;20186;-68
2022/01/02 10:55:20;;;;;;;1.60;1.30;;;;;;;14.96;61.25;95580.63;5052383;28;20205;-69
2022/01/02 10:57:48;;;;;;;1.20;1.10;;;;;;;14.84;61.40;95581.28;5055965;28;20211;-60
2022/01/02 11:00:14;;;;;;;1.60;1.50;;;;;;;14.64;63.22;95586.03;5056099;28;20201;-61
2022/01/02 11:02:40;;;;;;;1.33;1.20;;;;;;;14.32;63.42;95580.44;5056051;28;20263;-64
2022/01/02 11:05:08;;;;;;;2.67;1.30;;;;;;;14.06;61.60;95573.03;5055823;28;20200;-65
2022/01/02 11:07:44;;;;;;;2.33;1.30;;;;;;;13.95;63.90;95572.44;5056034;28;20215;-64
2022/01/02 11:10:12;;;;;;;1.80;1.20;;;;;;;13.81;64.64;95567.22;5056217;28;20275;-64
2022/01/02 11:12:39;;;;;;;0.90;0.90;;;;;;;13.76;62.27;95569.69;5056384;28;20255;-64
2022/01/02 11:15:10;;;;;;;1.17;1.07;;;;;;;13.63;64.77;95572.25;5055586;28;20181;-65
2022/01/02 11:17:36;;;;;;;1.90;1.17;;;;;;;13.64;64.66;95571.06;5055409;28;20197;-69
2022/01/02 11:20:07;;;;;;;2.63;1.30;;;;;;;13.67;65.44;95564.72;5055806;28;20300;-59
2022/01/02 11:22:44;;;;;;;2.53;1.80;;;;;;;13.62;67.62;95565.19;5055697;28;20209;-59
2022/01/02 11:25:22;;;;;;;1.40;1.30;;;;;;;13.63;66.15;95571.47;5055865;28;20193;-59
2022/01/02 11:27:58;;;;;;;2.80;2.00;;;;;;;13.63;65.96;95566.75;5056134;28;20226;-59
2022/01/02 11:30:30;;;;;;;2.10;1.80;;;;;;;13.65;65.86;95558.88;5056322;28;20222;-59
2022/01/02 11:33:07;;;;;;;4.17;2.10;;;;;;;13.68;66.54;95562.75;5059366;28;20205;-59
2022/01/02 11:35:35;;;;;;;3.07;1.60;;;;;;;13.72;66.44;95571.69;5059040;28;20285;-58
2022/01/02 11:38:02;;;;;;;2.50;1.53;;;;;;;13.83;65.47;95559.34;5075465;28;20251;-61
2022/01/02 11:40:45;;;;;;;3.40;1.90;;;;;;;13.88;66.45;95564.34;5059370;28;20304;-62
2022/01/02 11:43:36;;;;;;;2.63;1.50;;;;;;;13.98;65.97;95557.13;5075354;28;20213;-61
2022/01/02 11:46:21;;;;;;;3.00;1.90;;;;;;;14.04;66.24;95553.47;5058906;28;20270;-61
2022/01/02 11:49:13;;;;;;;2.13;1.73;;;;;;;14.09;64.84;95543.97;5058565;28;20211;-62